createdAt,value
2023-05-04T00:00:57.843Z,102269.88
2023-05-04T00:03:24.496Z,102259.34
2023-05-04T00:05:51.057Z,102256.59
2023-05-04T00:08:17.670Z,102260.34
2023-05-04T00:10:44.062Z,102254.63
2023-05-04T00:13:10.667Z,102254.81
2023-05-04T00:15:37.302Z,102251.94
2023-05-04T00:18:03.927Z,102256.06
2023-05-04T00:20:30.473Z,102259.81
2023-05-04T00:22:57.077Z,102245.22
2023-05-04T00:25:23.476Z,102249.31
2023-05-04T00:27:49.955Z,102247.69
2023-05-04T00:30:16.535Z,102247.78
2023-05-04T00:32:43.103Z,102241.38
2023-05-04T00:35:09.804Z,102239.78
2023-05-04T00:37:36.306Z,102240.22
2023-05-04T00:40:03.117Z,102237.00
2023-05-04T00:42:29.812Z,102234.66
2023-05-04T00:44:56.278Z,102240.03
2023-05-04T00:47:23.100Z,102235.22
2023-05-04T00:49:51.786Z,102230.41
2023-05-04T00:52:20.736Z,102240.22
2023-05-04T00:54:47.796Z,102222.38
2023-05-04T00:57:15.812Z,102222.47
2023-05-04T00:59:42.543Z,102228.97
2023-05-04T01:02:08.995Z,102219.34
2023-05-04T01:04:35.570Z,102225.06
2023-05-04T01:07:34.565Z,102217.47
2023-05-04T01:10:15.398Z,102209.00
2023-05-04T01:12:51.998Z,102218.78
2023-05-04T01:15:20.362Z,102208.25
2023-05-04T01:17:46.955Z,102222.16
2023-05-04T01:20:14.135Z,102216.56
2023-05-04T01:22:40.857Z,102213.91
2023-05-04T01:25:07.966Z,102220.75
2023-05-04T01:27:42.578Z,102227.25
2023-05-04T01:30:14.648Z,102222.91
2023-05-04T01:32:45.223Z,102215.22
2023-05-04T01:35:13.429Z,102218.53
2023-05-04T01:37:40.291Z,102214.13
2023-05-04T01:40:07.359Z,102216.63
2023-05-04T01:42:33.995Z,102220.38
2023-05-04T01:45:01.840Z,102205.38
2023-05-04T01:47:28.331Z,102211.09
2023-05-04T01:49:54.753Z,102205.47
2023-05-04T01:52:21.169Z,102209.22
2023-05-04T01:54:47.584Z,102202.72
2023-05-04T01:57:14.103Z,102201.53
2023-05-04T01:59:41.759Z,102199.66
2023-05-04T02:02:08.222Z,102205.72
2023-05-04T02:04:34.972Z,102204.56
2023-05-04T02:07:01.602Z,102201.41
2023-05-04T02:09:28.400Z,102203.03
2023-05-04T02:11:54.952Z,102203.91
2023-05-04T02:14:21.514Z,102200.69
2023-05-04T02:16:47.911Z,102195.06
2023-05-04T02:19:14.383Z,102193.53
2023-05-04T02:21:42.416Z,102199.25
2023-05-04T02:24:08.959Z,102192.84
2023-05-04T02:26:36.219Z,102183.53
2023-05-04T02:29:06.054Z,102183.19
2023-05-04T02:31:33.300Z,102185.69
2023-05-04T02:34:00.892Z,102182.44
2023-05-04T02:36:27.479Z,102178.47
2023-05-04T02:38:55.142Z,102176.47
2023-05-04T02:41:21.556Z,102183.06
2023-05-04T02:43:48.015Z,102177.00
2023-05-04T02:46:14.595Z,102172.19
2023-05-04T02:48:42.189Z,102179.56
2023-05-04T02:51:08.615Z,102173.16
2023-05-04T02:53:35.103Z,102180.06
2023-05-04T02:56:01.564Z,102171.59
2023-05-04T02:58:27.976Z,102173.28
2023-05-04T03:00:58.202Z,102171.69
2023-05-04T03:03:24.708Z,102165.25
2023-05-04T03:05:51.146Z,102167.75
2023-05-04T03:08:17.546Z,102157.22
2023-05-04T03:10:44.171Z,102161.38
2023-05-04T03:13:10.712Z,102158.97
2023-05-04T03:15:37.313Z,102161.47
2023-05-04T03:18:03.881Z,102159.06
2023-05-04T03:20:31.175Z,102151.03
2023-05-04T03:23:00.232Z,102151.91
2023-05-04T03:25:26.879Z,102155.53
2023-05-04T03:27:53.362Z,102155.63
2023-05-04T03:30:19.953Z,102158.91
2023-05-04T03:32:48.233Z,102146.41
2023-05-04T03:35:15.091Z,102150.47
2023-05-04T03:37:42.148Z,102152.53
2023-05-04T03:40:09.416Z,102152.97
2023-05-04T03:42:38.100Z,102144.13
2023-05-04T03:45:04.980Z,102149.03
2023-05-04T03:47:31.596Z,102147.03
2023-05-04T03:49:58.079Z,102150.75
2023-05-04T03:52:24.504Z,102147.53
2023-05-04T03:54:51.069Z,102145.94
2023-05-04T03:57:17.874Z,102147.63
2023-05-04T03:59:44.328Z,102138.72
2023-05-04T04:02:12.121Z,102135.50
2023-05-04T04:04:38.970Z,102133.06
2023-05-04T04:07:05.612Z,102130.75
2023-05-04T04:09:32.045Z,102130.31
2023-05-04T04:11:58.454Z,102127.53
2023-05-04T04:14:25.133Z,102115.34
2023-05-04T04:16:51.539Z,102125.91
2023-05-04T04:19:17.968Z,102130.03
2023-05-04T04:21:44.560Z,102129.25
2023-05-04T04:24:11.157Z,102129.25
2023-05-04T04:26:37.910Z,102130.91
2023-05-04T04:29:04.353Z,102135.78
2023-05-04T04:31:30.813Z,102136.66
2023-05-04T04:33:57.267Z,102140.69
2023-05-04T04:36:23.708Z,102145.56
2023-05-04T04:38:50.103Z,102139.88
2023-05-04T04:41:16.556Z,102144.75
2023-05-04T04:43:43.173Z,102146.81
2023-05-04T04:46:09.745Z,102137.91
2023-05-04T04:48:36.337Z,102141.97
2023-05-04T04:51:02.812Z,102148.03
2023-05-04T04:53:29.200Z,102154.50
2023-05-04T04:55:55.623Z,102144.81
2023-05-04T04:58:22.133Z,102145.97
2023-05-04T05:00:48.625Z,102148.03
2023-05-04T05:03:15.375Z,102149.66
2023-05-04T05:05:42.353Z,102150.00
2023-05-04T05:08:08.842Z,102144.69
2023-05-04T05:10:35.309Z,102146.31
2023-05-04T05:13:01.875Z,102148.72
2023-05-04T05:15:28.376Z,102147.53
2023-05-04T05:17:54.837Z,102159.25
2023-05-04T05:20:21.353Z,102153.13
2023-05-04T05:22:47.824Z,102154.28
2023-05-04T05:25:14.458Z,102157.88
2023-05-04T05:27:41.098Z,102157.47
2023-05-04T05:30:07.997Z,102159.00
2023-05-04T05:32:34.767Z,102164.25
2023-05-04T05:35:01.215Z,102164.97
2023-05-04T05:37:27.703Z,102172.66
2023-05-04T05:39:54.376Z,102160.41
2023-05-04T05:42:20.955Z,102159.47
2023-05-04T05:44:47.387Z,102153.72
2023-05-04T05:47:13.850Z,102157.72
2023-05-04T05:49:41.509Z,102151.16
2023-05-04T05:52:08.709Z,102153.47
2023-05-04T05:54:35.294Z,102155.91
2023-05-04T05:57:01.782Z,102162.34
2023-05-04T05:59:28.308Z,102163.06
2023-05-04T06:01:54.871Z,102163.44
2023-05-04T06:04:21.587Z,102162.53
2023-05-04T06:06:48.328Z,102162.50
2023-05-04T06:09:14.819Z,102162.41
2023-05-04T06:11:41.264Z,102157.44
2023-05-04T06:14:07.884Z,102160.22
2023-05-04T06:16:34.412Z,102152.47
2023-05-04T06:19:00.883Z,102158.91
2023-05-04T06:21:27.331Z,102150.72
2023-05-04T06:23:53.831Z,102150.19
2023-05-04T06:26:20.253Z,102153.78
2023-05-04T06:28:46.659Z,102141.94
2023-05-04T06:31:13.580Z,102146.28
2023-05-04T06:33:40.052Z,102136.06
2023-05-04T06:36:06.821Z,102132.34
2023-05-04T06:38:34.721Z,102126.13
2023-05-04T06:41:03.307Z,102124.44
2023-05-04T06:43:29.740Z,102132.44
2023-05-04T06:45:56.777Z,102125.53
2023-05-04T06:48:23.261Z,102120.53
2023-05-04T06:50:49.743Z,102130.16
2023-05-04T06:53:16.669Z,102126.41
2023-05-04T06:55:43.103Z,102127.94
2023-05-04T06:58:09.531Z,102128.75
2023-05-04T07:00:36.152Z,102124.13
2023-05-04T07:03:02.682Z,102132.22
2023-05-04T07:05:29.190Z,102119.47
2023-05-04T07:07:55.703Z,102114.47
2023-05-04T07:10:22.155Z,102116.44
2023-05-04T07:12:49.066Z,102112.69
2023-05-04T07:15:15.817Z,102110.91
2023-05-04T07:17:42.333Z,102123.84
2023-05-04T07:20:09.242Z,102113.56
2023-05-04T07:22:35.802Z,102105.38
2023-05-04T07:25:02.405Z,102099.25
2023-05-04T07:27:29.094Z,102106.81
2023-05-04T07:29:55.913Z,102106.28
2023-05-04T07:32:22.653Z,102109.88
2023-05-04T07:34:49.283Z,102106.13
2023-05-04T07:37:16.093Z,102105.19
2023-05-04T07:39:42.610Z,102107.53
2023-05-04T07:42:11.685Z,102103.31
2023-05-04T07:44:38.131Z,102104.47
2023-05-04T07:47:04.563Z,102096.59
2023-05-04T07:49:31.396Z,102090.91
2023-05-04T07:51:57.814Z,102096.41
2023-05-04T07:54:24.655Z,102100.50
2023-05-04T07:56:51.210Z,102097.09
2023-05-04T07:59:18.786Z,102096.88
2023-05-04T08:01:46.348Z,102100.47
2023-05-04T08:04:12.952Z,102093.47
2023-05-04T08:06:39.791Z,102094.53
2023-05-04T08:09:06.557Z,102098.53
2023-05-04T08:11:34.639Z,102092.38
2023-05-04T08:14:01.133Z,102088.16
2023-05-04T08:16:29.182Z,102087.16
2023-05-04T08:18:56.430Z,102096.84
2023-05-04T08:21:22.960Z,102089.00
2023-05-04T08:23:49.802Z,102077.44
2023-05-04T08:26:16.278Z,102081.78
2023-05-04T08:28:42.801Z,102066.59
2023-05-04T08:31:09.306Z,102075.06
2023-05-04T08:33:35.762Z,102073.25
2023-05-04T08:36:04.978Z,102067.41
2023-05-04T08:38:31.603Z,102067.28
2023-05-04T08:40:58.101Z,102060.66
2023-05-04T08:43:24.897Z,102049.91
2023-05-04T08:45:51.471Z,102046.47
2023-05-04T08:48:17.949Z,102046.34
2023-05-04T08:50:45.807Z,102041.34
2023-05-04T08:53:13.792Z,102042.81
2023-05-04T08:55:42.244Z,102042.22
2023-05-04T08:58:12.673Z,102046.44
2023-05-04T09:00:40.946Z,102039.81
2023-05-04T09:03:10.272Z,102047.81
2023-05-04T09:05:38.281Z,102046.88
2023-05-04T09:08:05.602Z,102045.88
2023-05-04T09:10:33.177Z,102040.84
2023-05-04T09:12:59.629Z,102026.88
2023-05-04T09:15:26.269Z,102031.19
2023-05-04T09:18:06.601Z,102027.28
2023-05-04T09:20:47.161Z,102027.16
2023-05-04T09:23:14.678Z,102026.22
2023-05-04T09:25:52.026Z,102025.16
2023-05-04T09:28:19.978Z,102020.91
2023-05-04T09:30:48.839Z,102018.75
2023-05-04T09:33:16.387Z,102021.00
2023-05-04T09:35:44.442Z,102016.75
2023-05-04T09:38:11.001Z,102019.47
2023-05-04T09:40:41.239Z,102015.22
2023-05-04T09:43:08.710Z,102012.56
2023-05-04T09:45:43.764Z,102012.41
2023-05-04T09:48:21.104Z,102010.66
2023-05-04T09:51:07.240Z,102004.34
2023-05-04T09:53:36.744Z,101999.28
2023-05-04T09:56:14.222Z,101999.94
2023-05-04T09:58:42.945Z,101999.34
2023-05-04T10:01:09.608Z,101994.41
2023-05-04T10:03:36.531Z,101996.53
2023-05-04T10:06:05.598Z,102002.91
2023-05-04T10:08:32.649Z,101993.69
2023-05-04T10:10:59.231Z,101997.22
2023-05-04T10:13:26.319Z,101993.28
2023-05-04T10:16:14.223Z,101985.81
2023-05-04T10:19:05.321Z,101976.13
2023-05-04T10:22:03.401Z,101979.31
2023-05-04T10:24:32.707Z,101975.34
2023-05-04T10:27:12.106Z,101979.22
2023-05-04T10:29:39.674Z,101966.81
2023-05-04T10:32:16.982Z,101953.13
2023-05-04T10:34:43.607Z,101965.53
2023-05-04T10:37:17.125Z,101951.88
2023-05-04T10:39:52.671Z,101943.56
2023-05-04T10:42:19.862Z,101954.41
2023-05-04T10:44:54.930Z,101943.59
2023-05-04T10:47:35.628Z,101942.66
2023-05-04T10:50:09.010Z,101944.41
2023-05-04T10:52:46.820Z,101944.25
2023-05-04T10:55:14.256Z,101928.94
2023-05-04T10:57:50.830Z,101932.47
2023-05-04T11:00:18.369Z,101922.91
2023-05-04T11:02:47.161Z,101925.13
2023-05-04T11:05:19.344Z,101927.66
2023-05-04T11:07:47.120Z,101929.56
2023-05-04T11:10:25.147Z,101915.56
2023-05-04T11:12:52.131Z,101910.13
2023-05-04T11:15:19.123Z,101913.63
2023-05-04T11:17:54.662Z,101911.09
2023-05-04T11:20:21.750Z,101905.97
2023-05-04T11:22:49.245Z,101906.59
2023-05-04T11:25:17.019Z,101893.81
2023-05-04T11:27:44.150Z,101898.13
2023-05-04T11:30:11.179Z,101892.22
2023-05-04T11:32:50.326Z,101889.69
2023-05-04T11:35:19.016Z,101892.84
2023-05-04T11:37:46.839Z,101880.09
2023-05-04T11:40:15.138Z,101867.16
2023-05-04T11:42:42.831Z,101871.63
2023-05-04T11:45:17.438Z,101856.78
2023-05-04T11:47:46.497Z,101852.94
2023-05-04T11:50:15.007Z,101868.41
2023-05-04T11:52:42.154Z,101860.88
2023-05-04T11:55:10.434Z,101855.28
2023-05-04T11:57:38.030Z,101859.28
2023-05-04T12:00:06.885Z,101858.66
2023-05-04T12:02:36.498Z,101852.91
2023-05-04T12:05:03.903Z,101846.97
2023-05-04T12:07:30.557Z,101846.78
2023-05-04T12:09:57.051Z,101845.03
2023-05-04T12:12:35.562Z,101850.78
2023-05-04T12:15:02.085Z,101842.28
2023-05-04T12:17:39.402Z,101840.72
2023-05-04T12:20:06.639Z,101846.09
2023-05-04T12:22:35.140Z,101844.13
2023-05-04T12:25:01.836Z,101829.28
2023-05-04T12:27:28.787Z,101828.31
2023-05-04T12:29:55.642Z,101833.09
2023-05-04T12:32:22.519Z,101824.28
2023-05-04T12:34:49.208Z,101822.00
2023-05-04T12:37:15.720Z,101824.72
2023-05-04T12:39:42.191Z,101822.44
2023-05-04T12:42:08.659Z,101815.41
2023-05-04T12:44:35.625Z,101813.59
2023-05-04T12:47:02.070Z,101813.94
2023-05-04T12:49:28.508Z,101809.41
2023-05-04T12:51:55.002Z,101810.97
2023-05-04T12:54:21.734Z,101811.59
2023-05-04T12:56:48.149Z,101810.91
2023-05-04T12:59:15.186Z,101805.44
2023-05-04T13:01:41.662Z,101805.28
2023-05-04T13:04:13.427Z,101801.41
2023-05-04T13:06:40.221Z,101794.84
2023-05-04T13:09:06.667Z,101791.28
2023-05-04T13:11:33.371Z,101790.28
2023-05-04T13:14:00.432Z,101785.03
2023-05-04T13:16:28.179Z,101784.06
2023-05-04T13:18:55.245Z,101778.13
2023-05-04T13:21:21.914Z,101776.31
2023-05-04T13:23:48.396Z,101776.63
2023-05-04T13:26:14.936Z,101777.72
2023-05-04T13:28:41.412Z,101772.59
2023-05-04T13:31:08.949Z,101771.28
2023-05-04T13:33:38.567Z,101762.97
2023-05-04T13:36:08.535Z,101769.03
2023-05-04T13:38:34.955Z,101770.44
2023-05-04T13:41:01.726Z,101761.31
2023-05-04T13:43:28.545Z,101758.72
2023-05-04T13:45:56.976Z,101753.53
2023-05-04T13:48:25.591Z,101754.13
2023-05-04T13:50:52.558Z,101756.31
2023-05-04T13:53:18.974Z,101751.16
2023-05-04T13:55:45.528Z,101748.56
2023-05-04T13:58:12.534Z,101753.63
2023-05-04T14:00:39.181Z,101735.06
2023-05-04T14:03:06.077Z,101733.25
2023-05-04T14:05:32.597Z,101733.06
2023-05-04T14:07:59.075Z,101719.25
2023-05-04T14:10:25.868Z,101721.34
2023-05-04T14:12:52.356Z,101710.91
2023-05-04T14:15:22.454Z,101709.88
2023-05-04T14:17:49.651Z,101707.81
2023-05-04T14:20:16.120Z,101710.78
2023-05-04T14:22:43.071Z,101710.28
2023-05-04T14:25:10.224Z,101701.44
2023-05-04T14:27:36.905Z,101696.75
2023-05-04T14:30:05.139Z,101691.75
2023-05-04T14:32:31.626Z,101692.09
2023-05-04T14:35:08.922Z,101687.09
2023-05-04T14:37:37.477Z,101682.94
2023-05-04T14:40:08.300Z,101673.78
2023-05-04T14:42:35.585Z,101675.34
2023-05-04T14:45:02.042Z,101672.47
2023-05-04T14:47:28.949Z,101677.22
2023-05-04T14:49:55.633Z,101670.19
2023-05-04T14:52:22.107Z,101672.56
2023-05-04T14:54:48.799Z,101674.94
2023-05-04T14:57:15.214Z,101677.31
2023-05-04T14:59:42.088Z,101675.50
2023-05-04T15:02:09.146Z,101668.97
2023-05-04T15:04:36.401Z,101672.44
2023-05-04T15:07:04.411Z,101664.28
2023-05-04T15:09:31.272Z,101670.13
2023-05-04T15:11:57.931Z,101665.13
2023-05-04T15:14:25.397Z,101664.13
2023-05-04T15:16:51.946Z,101661.56
2023-05-04T15:19:18.382Z,101672.03
2023-05-04T15:21:44.791Z,101661.88
2023-05-04T15:24:11.311Z,101659.81
2023-05-04T15:26:37.729Z,101647.78
2023-05-04T15:29:04.146Z,101648.88
2023-05-04T15:31:30.870Z,101646.00
2023-05-04T15:33:57.615Z,101657.81
2023-05-04T15:36:24.407Z,101654.94
2023-05-04T15:38:50.862Z,101655.50
2023-05-04T15:41:17.270Z,101652.91
2023-05-04T15:43:43.721Z,101652.91
2023-05-04T15:46:10.292Z,101656.34
2023-05-04T15:48:36.833Z,101646.41
2023-05-04T15:51:03.289Z,101635.66
2023-05-04T15:53:29.728Z,101624.63
2023-05-04T15:55:56.431Z,101623.91
2023-05-04T15:58:22.839Z,101637.03
2023-05-04T16:00:49.884Z,101618.41
2023-05-04T16:03:16.724Z,101620.00
2023-05-04T16:05:43.800Z,101610.34
2023-05-04T16:08:10.214Z,101611.44
2023-05-04T16:10:36.598Z,101607.22
2023-05-04T16:13:05.512Z,101612.47
2023-05-04T16:15:32.154Z,101601.22
2023-05-04T16:17:58.655Z,101595.44
2023-05-04T16:20:26.423Z,101597.63
2023-05-04T16:22:52.850Z,101597.91
2023-05-04T16:25:19.367Z,101605.53
2023-05-04T16:27:45.849Z,101595.28
2023-05-04T16:30:12.724Z,101597.16
2023-05-04T16:32:39.273Z,101590.38
2023-05-04T16:35:06.391Z,101587.75
2023-05-04T16:37:36.372Z,101589.63
2023-05-04T16:40:16.385Z,101579.41
2023-05-04T16:42:43.704Z,101580.97
2023-05-04T16:45:11.947Z,101573.63
2023-05-04T16:47:38.405Z,101575.47
2023-05-04T16:50:05.869Z,101579.94
2023-05-04T16:52:32.591Z,101582.81
2023-05-04T16:54:59.675Z,101572.88
2023-05-04T16:57:26.168Z,101568.16
2023-05-04T16:59:52.686Z,101571.84
2023-05-04T17:02:19.120Z,101571.34
2023-05-04T17:04:45.691Z,101567.13
2023-05-04T17:07:12.144Z,101572.13
2023-05-04T17:09:38.573Z,101564.75
2023-05-04T17:12:05.337Z,101569.25
2023-05-04T17:14:31.884Z,101567.66
2023-05-04T17:16:58.274Z,101565.56
2023-05-04T17:19:24.726Z,101560.31
2023-05-04T17:21:51.194Z,101564.25
2023-05-04T17:24:18.397Z,101570.53
2023-05-04T17:26:45.473Z,101568.47
2023-05-04T17:29:11.995Z,101569.75
2023-05-04T17:31:38.693Z,101566.09
2023-05-04T17:34:05.197Z,101574.22
2023-05-04T17:36:32.523Z,101573.41
2023-05-04T17:38:59.462Z,101568.97
2023-05-04T17:41:25.938Z,101568.16
2023-05-04T17:43:54.022Z,101560.81
2023-05-04T17:46:20.456Z,101570.50
2023-05-04T17:48:47.242Z,101569.19
2023-05-04T17:51:13.650Z,101573.91
2023-05-04T17:53:40.101Z,101571.00
2023-05-04T17:56:06.576Z,101571.00
2023-05-04T17:58:33.015Z,101574.66
2023-05-04T18:00:59.407Z,101570.44
2023-05-04T18:03:25.939Z,101566.00
2023-05-04T18:05:52.432Z,101557.53
2023-05-04T18:08:18.843Z,101569.59
2023-05-04T18:10:45.327Z,101569.31
2023-05-04T18:13:11.907Z,101565.66
2023-05-04T18:15:38.902Z,101569.03
2023-05-04T18:18:05.526Z,101573.72
2023-05-04T18:20:32.132Z,101571.34
2023-05-04T18:22:58.955Z,101570.56
2023-05-04T18:25:25.562Z,101575.25
2023-05-04T18:27:52.174Z,101576.28
2023-05-04T18:30:18.628Z,101580.47
2023-05-04T18:32:45.060Z,101581.00
2023-05-04T18:35:11.666Z,101588.56
2023-05-04T18:37:38.391Z,101588.00
2023-05-04T18:40:05.726Z,101592.19
2023-05-04T18:42:32.313Z,101601.56
2023-05-04T18:44:58.829Z,101597.59
2023-05-04T18:47:25.364Z,101596.53
2023-05-04T18:49:54.163Z,101611.16
2023-05-04T18:52:21.649Z,101618.75
2023-05-04T18:54:49.285Z,101618.13
2023-05-04T18:57:15.695Z,101616.56
2023-05-04T18:59:42.128Z,101621.75
2023-05-04T19:02:09.432Z,101611.75
2023-05-04T19:04:36.064Z,101622.22
2023-05-04T19:07:02.691Z,101626.09
2023-05-04T19:09:29.225Z,101624.50
2023-05-04T19:11:55.760Z,101631.28
2023-05-04T19:14:22.181Z,101621.47
2023-05-04T19:16:48.600Z,101622.25
2023-05-04T19:19:15.365Z,101624.09
2023-05-04T19:21:42.893Z,101618.53
2023-05-04T19:24:10.328Z,101621.34
2023-05-04T19:26:37.777Z,101628.38
2023-05-04T19:29:04.322Z,101621.56
2023-05-04T19:31:31.089Z,101621.78
2023-05-04T19:33:57.703Z,101621.47
2023-05-04T19:36:24.137Z,101622.78
2023-05-04T19:38:50.983Z,101624.78
2023-05-04T19:41:17.848Z,101634.72
2023-05-04T19:43:44.289Z,101623.91
2023-05-04T19:46:10.714Z,101636.72
2023-05-04T19:48:38.539Z,101626.19
2023-05-04T19:51:05.024Z,101622.25
2023-05-04T19:53:31.666Z,101632.41
2023-05-04T19:55:58.435Z,101627.63
2023-05-04T19:58:29.960Z,101630.50
2023-05-04T20:00:56.456Z,101627.06
2023-05-04T20:03:23.123Z,101622.31
2023-05-04T20:05:51.199Z,101617.56
2023-05-04T20:08:18.643Z,101621.44
2023-05-04T20:10:45.060Z,101617.94
2023-05-04T20:13:11.544Z,101620.53
2023-05-04T20:15:38.083Z,101625.69
2023-05-04T20:18:04.587Z,101618.59
2023-05-04T20:20:31.028Z,101627.72
2023-05-04T20:22:57.513Z,101617.97
2023-05-04T20:25:23.913Z,101620.53
2023-05-04T20:27:52.505Z,101616.56
2023-05-04T20:30:18.984Z,101617.56
2023-05-04T20:32:48.029Z,101614.41
2023-05-04T20:35:14.632Z,101619.06
2023-05-04T20:37:41.059Z,101620.88
2023-05-04T20:40:08.580Z,101613.72
2023-05-04T20:42:35.136Z,101627.28
2023-05-04T20:45:01.663Z,101618.38
2023-05-04T20:47:28.502Z,101613.31
2023-05-04T20:49:54.936Z,101622.44
2023-05-04T20:52:21.723Z,101617.19
2023-05-04T20:54:48.347Z,101605.09
2023-05-04T20:57:14.895Z,101603.22
2023-05-04T20:59:41.372Z,101610.25
2023-05-04T21:02:07.924Z,101606.00
2023-05-04T21:04:34.379Z,101607.78
2023-05-04T21:07:00.926Z,101598.56
2023-05-04T21:09:27.969Z,101610.06
2023-05-04T21:11:54.635Z,101596.38
2023-05-04T21:14:21.416Z,101602.63
2023-05-04T21:16:47.846Z,101595.47
2023-05-04T21:19:14.260Z,101588.94
2023-05-04T21:21:41.464Z,101593.88
2023-05-04T21:24:14.396Z,101583.09
2023-05-04T21:26:41.581Z,101597.16
2023-05-04T21:29:12.818Z,101582.50
2023-05-04T21:31:39.631Z,101581.88
2023-05-04T21:34:06.380Z,101579.22
2023-05-04T21:36:32.830Z,101578.41
2023-05-04T21:38:59.287Z,101588.81
2023-05-04T21:41:25.818Z,101584.84
2023-05-04T21:43:52.259Z,101579.59
2023-05-04T21:46:18.803Z,101585.53
2023-05-04T21:48:45.331Z,101582.38
2023-05-04T21:51:11.800Z,101577.91
2023-05-04T21:53:38.280Z,101579.69
2023-05-04T21:56:09.336Z,101584.34
2023-05-04T21:58:40.399Z,101584.03
2023-05-04T22:01:08.111Z,101577.69
2023-05-04T22:03:34.734Z,101585.53
2023-05-04T22:06:01.812Z,101581.53
2023-05-04T22:08:29.025Z,101588.59
2023-05-04T22:10:57.028Z,101599.47
2023-05-04T22:13:23.521Z,101597.09
2023-05-04T22:15:50.755Z,101588.63
2023-05-04T22:18:17.983Z,101592.78
2023-05-04T22:20:44.867Z,101589.31
2023-05-04T22:23:11.479Z,101590.28
2023-05-04T22:25:38.378Z,101598.91
2023-05-04T22:28:05.307Z,101594.16
2023-05-04T22:30:31.818Z,101595.41
2023-05-04T22:32:58.322Z,101609.47
2023-05-04T22:35:24.811Z,101604.72
2023-05-04T22:37:51.453Z,101602.81
2023-05-04T22:40:18.093Z,101609.84
2023-05-04T22:42:47.573Z,101606.06
2023-05-04T22:45:14.811Z,101617.06
2023-05-04T22:47:41.873Z,101616.75
2023-05-04T22:50:09.330Z,101620.09
2023-05-04T22:52:36.584Z,101616.94
2023-05-04T22:55:03.979Z,101619.50
2023-05-04T22:57:31.297Z,101612.66
2023-05-04T22:59:57.702Z,101623.84
2023-05-04T23:02:24.509Z,101612.84
2023-05-04T23:04:51.057Z,101607.59
2023-05-04T23:07:17.639Z,101610.94
2023-05-04T23:09:47.337Z,101616.38
2023-05-04T23:12:15.068Z,101614.78
2023-05-04T23:14:41.914Z,101611.31
2023-05-04T23:17:08.491Z,101621.19
2023-05-04T23:19:34.963Z,101617.22
2023-05-04T23:22:01.544Z,101613.25
2023-05-04T23:24:27.930Z,101601.16
2023-05-04T23:26:54.371Z,101603.72
2023-05-04T23:29:20.806Z,101613.59
2023-05-04T23:31:47.370Z,101609.66
2023-05-04T23:34:13.853Z,101599.13
2023-05-04T23:36:40.273Z,101601.19
2023-05-04T23:39:06.740Z,101598.50
2023-05-04T23:41:33.311Z,101601.84
2023-05-04T23:43:59.980Z,101600.28
2023-05-04T23:46:26.469Z,101598.06
2023-05-04T23:48:53.264Z,101592.31
2023-05-04T23:51:20.269Z,101593.28
2023-05-04T23:53:47.149Z,101589.34
2023-05-04T23:56:14.428Z,101584.09
2023-05-04T23:58:41.877Z,101583.78
